createdAt,value
2022-09-26T00:01:15.016Z,94957.91
2022-09-26T00:03:47.083Z,94944.53
2022-09-26T00:06:14.154Z,94950.59
2022-09-26T00:08:40.873Z,94939.41
2022-09-26T00:11:11.126Z,94949.50
2022-09-26T00:13:40.264Z,94943.97
2022-09-26T00:16:07.890Z,94933.94
2022-09-26T00:18:35.099Z,94938.84
2022-09-26T00:21:13.091Z,94944.81
2022-09-26T00:23:41.845Z,94937.75
2022-09-26T00:26:09.522Z,94937.00
2022-09-26T00:28:36.541Z,94944.16
2022-09-26T00:31:05.381Z,94938.38
2022-09-26T00:33:32.616Z,94945.25
2022-09-26T00:35:59.256Z,94930.84
2022-09-26T00:38:26.255Z,94928.97
2022-09-26T00:40:52.993Z,94929.78
2022-09-26T00:43:33.097Z,94927.22
2022-09-26T00:46:14.529Z,94900.22
2022-09-26T00:48:43.607Z,94913.94
2022-09-26T00:51:11.457Z,94921.38
2022-09-26T00:53:50.069Z,94916.69
2022-09-26T00:56:30.677Z,94916.03
2022-09-26T00:59:08.550Z,94921.09
2022-09-26T01:01:35.466Z,94928.66
2022-09-26T01:04:04.696Z,94933.75
2022-09-26T01:06:32.259Z,94938.09
2022-09-26T01:09:01.764Z,94927.63
2022-09-26T01:11:31.632Z,94928.47
2022-09-26T01:13:59.182Z,94924.69
2022-09-26T01:16:25.881Z,94928.88
2022-09-26T01:18:52.602Z,94922.44
2022-09-26T01:21:56.893Z,94923.47
2022-09-26T01:24:38.262Z,94913.69
2022-09-26T01:27:38.975Z,94910.88
2022-09-26T01:30:29.409Z,94916.06
2022-09-26T01:33:26.932Z,94919.81
2022-09-26T01:36:08.715Z,94925.56
2022-09-26T01:38:48.514Z,94922.38
2022-09-26T01:41:24.573Z,94920.81
2022-09-26T01:43:56.949Z,94908.34
2022-09-26T01:46:41.797Z,94920.16
2022-09-26T01:49:32.220Z,94908.66
2022-09-26T01:52:19.997Z,94904.69
2022-09-26T01:54:55.595Z,94907.53
2022-09-26T01:57:30.148Z,94898.84
2022-09-26T02:00:02.365Z,94892.75
2022-09-26T02:02:31.553Z,94895.38
2022-09-26T02:05:07.819Z,94881.16
2022-09-26T02:07:40.305Z,94889.25
2022-09-26T02:10:20.539Z,94895.22
2022-09-26T02:12:55.053Z,94883.72
2022-09-26T02:15:25.691Z,94885.25
2022-09-26T02:17:58.104Z,94885.69
2022-09-26T02:20:30.111Z,94889.94
2022-09-26T02:22:58.873Z,94889.34
2022-09-26T02:25:26.467Z,94866.66
2022-09-26T02:27:53.103Z,94855.16
2022-09-26T02:30:19.748Z,94866.66
2022-09-26T02:32:46.785Z,94851.84
2022-09-26T02:35:32.635Z,94860.25
2022-09-26T02:37:59.283Z,94877.06
2022-09-26T02:40:36.757Z,94881.31
2022-09-26T02:43:26.489Z,94874.72
2022-09-26T02:46:11.238Z,94877.63
2022-09-26T02:48:40.816Z,94864.34
2022-09-26T02:51:20.651Z,94868.75
2022-09-26T02:53:57.394Z,94856.47
2022-09-26T02:56:41.876Z,94858.97
2022-09-26T02:59:29.751Z,94850.59
2022-09-26T03:02:15.807Z,94843.91
2022-09-26T03:04:49.247Z,94851.75
2022-09-26T03:07:24.303Z,94840.50
2022-09-26T03:09:53.060Z,94843.41
2022-09-26T03:12:20.974Z,94840.84
2022-09-26T03:14:49.982Z,94839.94
2022-09-26T03:17:18.973Z,94844.94
2022-09-26T03:19:55.155Z,94845.50
2022-09-26T03:22:21.805Z,94841.31
2022-09-26T03:24:48.352Z,94850.94
2022-09-26T03:27:17.095Z,94845.41
2022-09-26T03:29:44.043Z,94844.53
2022-09-26T03:32:10.646Z,94831.53
2022-09-26T03:34:39.958Z,94838.31
2022-09-26T03:37:07.208Z,94818.81
2022-09-26T03:39:33.813Z,94802.13
2022-09-26T03:42:02.086Z,94831.03
2022-09-26T03:44:29.620Z,94844.84
2022-09-26T03:46:56.191Z,94829.91
2022-09-26T03:49:22.772Z,94831.63
2022-09-26T03:51:49.312Z,94830.56
2022-09-26T03:54:16.597Z,94820.25
2022-09-26T03:56:43.200Z,94823.72
2022-09-26T03:59:09.838Z,94832.81
2022-09-26T04:01:36.448Z,94830.84
2022-09-26T04:04:03.189Z,94837.66
2022-09-26T04:06:29.824Z,94829.31
2022-09-26T04:08:56.501Z,94840.25
2022-09-26T04:11:24.653Z,94838.19
2022-09-26T04:13:53.987Z,94830.78
2022-09-26T04:16:23.843Z,94836.13
2022-09-26T04:18:56.733Z,94831.22
2022-09-26T04:21:24.315Z,94840.56
2022-09-26T04:23:53.071Z,94850.84
2022-09-26T04:26:23.689Z,94846.91
2022-09-26T04:28:52.289Z,94846.78
2022-09-26T04:31:21.557Z,94853.44
2022-09-26T04:33:48.398Z,94859.03
2022-09-26T04:36:16.402Z,94833.06
2022-09-26T04:38:43.036Z,94844.19
2022-09-26T04:41:18.527Z,94828.88
2022-09-26T04:43:46.077Z,94835.09
2022-09-26T04:46:21.848Z,94826.50
2022-09-26T04:48:51.664Z,94832.50
2022-09-26T04:51:20.084Z,94836.75
2022-09-26T04:53:47.479Z,94838.63
2022-09-26T04:56:15.529Z,94842.59
2022-09-26T04:58:43.483Z,94824.34
2022-09-26T05:01:15.537Z,94826.59
2022-09-26T05:03:42.495Z,94826.66
2022-09-26T05:06:10.238Z,94820.00
2022-09-26T05:08:41.183Z,94836.06
2022-09-26T05:11:09.285Z,94823.50
2022-09-26T05:13:37.933Z,94821.66
2022-09-26T05:16:06.312Z,94825.78
2022-09-26T05:18:33.768Z,94829.81
2022-09-26T05:21:01.433Z,94809.84
2022-09-26T05:23:46.451Z,94820.50
2022-09-26T05:26:24.361Z,94816.06
2022-09-26T05:28:56.681Z,94825.22
2022-09-26T05:31:29.219Z,94801.19
2022-09-26T05:33:59.418Z,94788.47
2022-09-26T05:36:27.348Z,94785.63
2022-09-26T05:38:54.490Z,94798.81
2022-09-26T05:41:21.650Z,94793.06
2022-09-26T05:43:48.383Z,94771.09
2022-09-26T05:46:16.448Z,94786.13
2022-09-26T05:48:43.196Z,94791.47
2022-09-26T05:51:15.591Z,94794.22
2022-09-26T05:53:44.441Z,94790.13
2022-09-26T05:56:17.664Z,94799.13
2022-09-26T05:58:45.483Z,94810.09
2022-09-26T06:01:16.802Z,94820.34
2022-09-26T06:03:44.823Z,94808.09
2022-09-26T06:06:20.303Z,94816.41
2022-09-26T06:08:48.143Z,94807.47
2022-09-26T06:11:17.135Z,94819.69
2022-09-26T06:13:45.911Z,94804.81
2022-09-26T06:16:18.242Z,94815.25
2022-09-26T06:18:46.906Z,94820.94
2022-09-26T06:21:15.560Z,94816.09
2022-09-26T06:23:42.599Z,94813.53
2022-09-26T06:26:20.158Z,94806.94
2022-09-26T06:28:47.267Z,94812.59
2022-09-26T06:31:17.801Z,94804.38
2022-09-26T06:33:45.039Z,94818.81
2022-09-26T06:36:12.071Z,94805.94
2022-09-26T06:38:38.981Z,94795.84
2022-09-26T06:41:07.590Z,94797.03
2022-09-26T06:43:34.415Z,94787.63
2022-09-26T06:46:01.284Z,94794.31
2022-09-26T06:48:27.972Z,94792.47
2022-09-26T06:50:57.186Z,94788.41
2022-09-26T06:53:23.937Z,94792.53
2022-09-26T06:55:50.573Z,94807.63
2022-09-26T06:58:17.509Z,94804.50
2022-09-26T07:00:44.497Z,94798.91
2022-09-26T07:03:13.511Z,94810.53
2022-09-26T07:05:40.078Z,94786.81
2022-09-26T07:08:07.078Z,94799.56
2022-09-26T07:10:37.591Z,94808.75
2022-09-26T07:13:09.521Z,94804.56
2022-09-26T07:15:37.148Z,94813.09
2022-09-26T07:18:06.482Z,94794.41
2022-09-26T07:20:36.483Z,94804.28
2022-09-26T07:23:04.580Z,94808.13
2022-09-26T07:25:32.266Z,94789.31
2022-09-26T07:27:59.598Z,94808.16
2022-09-26T07:30:26.735Z,94807.03
2022-09-26T07:32:56.975Z,94808.50
2022-09-26T07:35:24.963Z,94808.16
2022-09-26T07:37:52.908Z,94821.00
2022-09-26T07:40:21.769Z,94809.06
2022-09-26T07:43:09.252Z,94813.03
2022-09-26T07:45:54.181Z,94801.41
2022-09-26T07:48:39.323Z,94800.56
2022-09-26T07:51:09.310Z,94800.09
2022-09-26T07:53:36.835Z,94791.00
2022-09-26T07:56:06.281Z,94786.97
2022-09-26T07:58:33.436Z,94770.72
2022-09-26T08:01:00.078Z,94758.00
2022-09-26T08:03:28.588Z,94742.84
2022-09-26T08:06:02.144Z,94743.97
2022-09-26T08:08:29.946Z,94763.00
2022-09-26T08:11:02.769Z,94758.63
2022-09-26T08:13:31.970Z,94750.50
2022-09-26T08:16:04.483Z,94744.59
2022-09-26T08:18:31.288Z,94744.50
2022-09-26T08:20:58.325Z,94737.31
2022-09-26T08:23:29.598Z,94733.31
2022-09-26T08:25:56.208Z,94711.44
2022-09-26T08:28:24.034Z,94735.38
2022-09-26T08:30:50.877Z,94730.69
2022-09-26T08:33:19.013Z,94732.94
2022-09-26T08:35:45.574Z,94734.78
2022-09-26T08:38:14.431Z,94732.91
2022-09-26T08:41:03.096Z,94722.28
2022-09-26T08:43:44.866Z,94732.47
2022-09-26T08:46:32.158Z,94720.47
2022-09-26T08:49:36.732Z,94707.78
2022-09-26T08:52:15.157Z,94696.06
2022-09-26T08:54:45.068Z,94710.53
2022-09-26T08:57:37.847Z,94704.78
2022-09-26T09:00:19.169Z,94717.56
2022-09-26T09:03:36.825Z,94724.63
2022-09-26T09:06:11.615Z,94703.25
2022-09-26T09:08:46.410Z,94696.50
2022-09-26T09:11:49.146Z,94683.66
2022-09-26T09:14:23.709Z,94692.41
2022-09-26T09:17:13.903Z,94679.31
2022-09-26T09:19:48.768Z,94680.97
2022-09-26T09:22:47.111Z,94675.22
2022-09-26T09:25:52.875Z,94675.03
2022-09-26T09:28:34.644Z,94639.94
2022-09-26T09:31:05.973Z,94679.84
2022-09-26T09:33:47.478Z,94666.66
2022-09-26T09:36:20.112Z,94664.38
2022-09-26T09:38:49.839Z,94636.72
2022-09-26T09:41:21.450Z,94646.41
2022-09-26T09:44:02.294Z,94644.72
2022-09-26T09:46:34.906Z,94652.50
2022-09-26T09:49:10.839Z,94650.78
2022-09-26T09:51:40.351Z,94648.09
2022-09-26T09:54:22.322Z,94630.53
2022-09-26T09:57:11.611Z,94643.25
2022-09-26T10:00:07.608Z,94641.19
2022-09-26T10:03:02.377Z,94620.00
2022-09-26T10:05:37.234Z,94631.38
2022-09-26T10:08:11.739Z,94631.06
2022-09-26T10:10:42.310Z,94628.47
2022-09-26T10:13:11.720Z,94631.53
2022-09-26T10:16:02.343Z,94638.53
2022-09-26T10:18:29.210Z,94620.00
2022-09-26T10:20:59.730Z,94631.56
2022-09-26T10:23:32.894Z,94622.63
2022-09-26T10:26:05.679Z,94584.81
2022-09-26T10:28:47.094Z,94615.25
2022-09-26T10:31:39.944Z,94608.09
2022-09-26T10:34:24.813Z,94619.41
2022-09-26T10:36:53.119Z,94604.97
2022-09-26T10:39:40.819Z,94622.28
2022-09-26T10:42:35.300Z,94578.19
2022-09-26T10:45:15.997Z,94589.38
2022-09-26T10:47:46.385Z,94592.44
2022-09-26T10:50:13.514Z,94602.88
2022-09-26T10:52:51.964Z,94582.19
2022-09-26T10:55:32.796Z,94585.53
2022-09-26T10:58:11.365Z,94579.44
2022-09-26T11:00:43.773Z,94572.31
2022-09-26T11:03:16.469Z,94570.44
2022-09-26T11:06:02.249Z,94562.97
2022-09-26T11:08:38.287Z,94546.25
2022-09-26T11:11:12.251Z,94569.00
2022-09-26T11:13:48.219Z,94553.78
2022-09-26T11:16:20.214Z,94566.94
2022-09-26T11:19:19.861Z,94569.81
2022-09-26T11:22:15.174Z,94557.41
2022-09-26T11:25:02.212Z,94561.84
2022-09-26T11:27:31.285Z,94544.50
2022-09-26T11:30:10.685Z,94487.56
2022-09-26T11:32:43.146Z,94526.69
2022-09-26T11:35:33.492Z,94537.56
2022-09-26T11:38:16.185Z,94516.69
2022-09-26T11:41:14.006Z,94538.00
2022-09-26T11:43:40.612Z,94536.19
2022-09-26T11:46:58.756Z,94522.22
2022-09-26T11:49:40.588Z,94516.06
2022-09-26T11:52:23.482Z,94519.25
2022-09-26T11:54:55.609Z,94518.31
2022-09-26T11:57:40.939Z,94509.69
2022-09-26T12:00:27.550Z,94509.34
2022-09-26T12:03:11.442Z,94502.81
2022-09-26T12:05:54.644Z,94511.59
2022-09-26T12:08:36.103Z,94508.28
2022-09-26T12:11:19.989Z,94513.66
2022-09-26T12:14:24.054Z,94488.84
2022-09-26T12:17:09.695Z,94493.56
2022-09-26T12:19:39.118Z,94497.97
2022-09-26T12:22:28.510Z,94467.13
2022-09-26T12:25:11.020Z,94490.53
2022-09-26T12:28:06.735Z,94482.09
2022-09-26T12:30:45.944Z,94468.75
2022-09-26T12:34:01.159Z,94475.41
2022-09-26T12:36:48.073Z,94471.63
2022-09-26T12:39:57.664Z,94460.97
2022-09-26T12:42:47.967Z,94460.69
2022-09-26T12:45:48.408Z,94440.22
2022-09-26T12:48:51.441Z,94448.47
2022-09-26T12:51:42.037Z,94406.13
2022-09-26T12:54:17.544Z,94432.91
2022-09-26T12:57:11.977Z,94443.13
2022-09-26T12:59:52.775Z,94414.44
2022-09-26T13:02:44.447Z,94421.72
2022-09-26T13:05:30.757Z,94431.72
2022-09-26T13:08:12.727Z,94425.56
2022-09-26T13:10:57.732Z,94433.97
2022-09-26T13:13:52.182Z,94423.34
2022-09-26T13:16:43.761Z,94408.84
2022-09-26T13:19:29.252Z,94402.38
2022-09-26T13:22:35.096Z,94406.47
2022-09-26T13:25:10.935Z,94407.03
2022-09-26T13:28:05.218Z,94391.53
2022-09-26T13:30:36.615Z,94413.16
2022-09-26T13:33:20.819Z,94400.19
2022-09-26T13:35:54.338Z,94396.66
2022-09-26T13:38:34.095Z,94404.50
2022-09-26T13:41:22.838Z,94397.19
2022-09-26T13:44:06.147Z,94402.97
2022-09-26T13:47:00.553Z,94398.69
2022-09-26T13:49:58.002Z,94393.13
2022-09-26T13:52:48.158Z,94393.56
2022-09-26T13:55:20.182Z,94372.22
2022-09-26T13:58:07.382Z,94394.84
2022-09-26T14:00:40.812Z,94386.91
2022-09-26T14:03:10.251Z,94390.22
2022-09-26T14:05:50.034Z,94384.50
2022-09-26T14:08:48.721Z,94386.91
2022-09-26T14:11:30.841Z,94397.69
2022-09-26T14:14:21.348Z,94390.47
2022-09-26T14:16:56.853Z,94379.19
2022-09-26T14:19:38.337Z,94384.25
2022-09-26T14:22:18.361Z,94382.56
2022-09-26T14:24:47.267Z,94384.25
2022-09-26T14:27:30.501Z,94376.09
2022-09-26T14:30:29.590Z,94388.84
2022-09-26T14:33:05.279Z,94390.16
2022-09-26T14:35:41.119Z,94385.00
2022-09-26T14:38:22.905Z,94393.91
2022-09-26T14:41:00.289Z,94380.00
2022-09-26T14:43:30.318Z,94379.03
2022-09-26T14:46:08.516Z,94333.84
2022-09-26T14:48:38.134Z,94372.78
2022-09-26T14:51:04.898Z,94373.31
2022-09-26T14:53:43.379Z,94376.09
2022-09-26T14:56:14.436Z,94358.31
2022-09-26T14:58:51.152Z,94363.69
2022-09-26T15:01:39.030Z,94356.66
2022-09-26T15:04:08.835Z,94369.44
2022-09-26T15:06:50.113Z,94364.97
2022-09-26T15:09:27.369Z,94357.94
2022-09-26T15:12:10.799Z,94344.22
2022-09-26T15:14:46.689Z,94352.19
2022-09-26T15:17:20.459Z,94336.09
2022-09-26T15:19:54.678Z,94366.63
2022-09-26T15:22:24.961Z,94364.97
2022-09-26T15:25:15.509Z,94332.75
2022-09-26T15:27:49.186Z,94352.03
2022-09-26T15:30:27.110Z,94349.59
2022-09-26T15:32:57.788Z,94354.59
2022-09-26T15:35:26.818Z,94351.09
2022-09-26T15:38:01.999Z,94365.19
2022-09-26T15:40:30.956Z,94351.44
2022-09-26T15:43:09.734Z,94364.25
2022-09-26T15:45:46.229Z,94363.13
2022-09-26T15:48:24.903Z,94355.91
2022-09-26T15:50:58.790Z,94364.41
2022-09-26T15:53:28.354Z,94362.00
2022-09-26T15:56:02.031Z,94366.44
2022-09-26T15:58:53.346Z,94354.56
2022-09-26T16:01:22.562Z,94354.78
2022-09-26T16:04:05.253Z,94357.91
2022-09-26T16:06:35.336Z,94342.69
2022-09-26T16:09:10.796Z,94358.97
2022-09-26T16:12:03.203Z,94344.69
2022-09-26T16:14:37.911Z,94357.13
2022-09-26T16:17:23.333Z,94360.09
2022-09-26T16:20:05.613Z,94342.47
2022-09-26T16:22:37.084Z,94350.09
2022-09-26T16:25:15.608Z,94354.34
2022-09-26T16:27:42.853Z,94348.75
2022-09-26T16:30:27.779Z,94357.06
2022-09-26T16:33:03.209Z,94364.84
2022-09-26T16:35:33.472Z,94354.06
2022-09-26T16:38:02.951Z,94349.66
2022-09-26T16:40:32.761Z,94343.34
2022-09-26T16:43:12.659Z,94362.41
2022-09-26T16:45:50.566Z,94353.31
2022-09-26T16:48:38.748Z,94348.84
2022-09-26T16:51:15.815Z,94356.59
2022-09-26T16:53:47.773Z,94349.22
2022-09-26T16:56:17.513Z,94342.53
2022-09-26T16:59:02.513Z,94357.72
2022-09-26T17:01:48.403Z,94360.09
2022-09-26T17:04:18.019Z,94349.53
2022-09-26T17:06:46.322Z,94339.88
2022-09-26T17:09:21.209Z,94351.88
2022-09-26T17:11:50.937Z,94355.88
2022-09-26T17:14:24.212Z,94354.06
2022-09-26T17:16:55.672Z,94349.78
2022-09-26T17:19:24.442Z,94351.69
2022-09-26T17:21:52.029Z,94346.13
2022-09-26T17:24:23.075Z,94341.25
2022-09-26T17:27:22.696Z,94350.91
2022-09-26T17:29:51.790Z,94347.84
2022-09-26T17:32:32.122Z,94330.28
2022-09-26T17:35:01.988Z,94329.34
2022-09-26T17:37:29.075Z,94336.47
2022-09-26T17:39:56.020Z,94341.25
2022-09-26T17:42:23.836Z,94334.19
2022-09-26T17:44:51.109Z,94338.41
2022-09-26T17:47:19.089Z,94358.47
2022-09-26T17:49:52.310Z,94330.34
2022-09-26T17:52:31.553Z,94344.78
2022-09-26T17:55:01.585Z,94358.06
2022-09-26T17:57:34.558Z,94337.19
2022-09-26T18:00:06.975Z,94344.78
2022-09-26T18:02:42.668Z,94337.84
2022-09-26T18:05:23.261Z,94319.91
2022-09-26T18:07:53.170Z,94333.53
2022-09-26T18:10:23.980Z,94323.31
2022-09-26T18:12:58.845Z,94328.00
2022-09-26T18:15:27.652Z,94301.34
2022-09-26T18:17:54.711Z,94336.78
2022-09-26T18:20:27.366Z,94340.09
2022-09-26T18:22:54.395Z,94340.88
2022-09-26T18:25:24.407Z,94339.69
2022-09-26T18:27:54.919Z,94332.59
2022-09-26T18:30:22.532Z,94346.00
2022-09-26T18:32:54.061Z,94351.22
2022-09-26T18:35:25.366Z,94347.47
2022-09-26T18:37:55.563Z,94342.38
2022-09-26T18:40:25.098Z,94266.22
2022-09-26T18:42:55.062Z,94352.59
2022-09-26T18:45:39.350Z,94356.84
2022-09-26T18:48:08.241Z,94360.88
2022-09-26T18:50:39.819Z,94358.41
2022-09-26T18:53:18.815Z,94369.44
2022-09-26T18:56:03.974Z,94382.97
2022-09-26T18:58:32.557Z,94361.31
2022-09-26T19:01:01.307Z,94363.63
2022-09-26T19:03:31.014Z,94378.44
2022-09-26T19:06:02.183Z,94371.78
2022-09-26T19:08:40.728Z,94356.19
2022-09-26T19:11:13.151Z,94352.91
2022-09-26T19:13:45.192Z,94346.94
2022-09-26T19:16:12.436Z,94349.84
2022-09-26T19:18:40.877Z,94348.91
2022-09-26T19:21:33.864Z,94356.00
2022-09-26T19:24:06.715Z,94355.66
2022-09-26T19:26:42.796Z,94347.66
2022-09-26T19:29:16.942Z,94331.06
2022-09-26T19:31:43.985Z,94346.63
2022-09-26T19:34:14.982Z,94315.34
2022-09-26T19:36:41.876Z,94331.00
2022-09-26T19:39:15.847Z,94336.75
2022-09-26T19:41:42.701Z,94302.16
2022-09-26T19:44:09.651Z,94338.81
2022-09-26T19:46:38.101Z,94324.66
2022-09-26T19:49:06.014Z,94337.88
2022-09-26T19:51:39.699Z,94325.72
2022-09-26T19:54:06.854Z,94329.44
2022-09-26T19:56:33.684Z,94340.41
2022-09-26T19:59:00.366Z,94333.44
2022-09-26T20:01:27.459Z,94324.25
2022-09-26T20:03:54.322Z,94332.03
2022-09-26T20:06:23.592Z,94331.97
2022-09-26T20:08:53.226Z,94332.75
2022-09-26T20:11:22.396Z,94324.59
2022-09-26T20:14:07.668Z,94328.91
2022-09-26T20:16:38.635Z,94312.97
2022-09-26T20:19:07.069Z,94325.22
2022-09-26T20:21:34.509Z,94326.97
2022-09-26T20:24:01.480Z,94293.53
2022-09-26T20:26:30.654Z,94310.72
2022-09-26T20:28:57.509Z,94301.56
2022-09-26T20:31:29.225Z,94292.38
2022-09-26T20:34:00.127Z,94282.69
2022-09-26T20:36:32.897Z,94275.94
2022-09-26T20:39:04.001Z,94286.22
2022-09-26T20:41:35.859Z,94292.97
2022-09-26T20:44:07.057Z,94280.75
2022-09-26T20:46:40.823Z,94294.19
2022-09-26T20:49:14.891Z,94297.38
2022-09-26T20:51:43.131Z,94277.72
2022-09-26T20:54:26.999Z,94273.22
2022-09-26T20:56:54.864Z,94264.22
2022-09-26T20:59:23.675Z,94256.34
2022-09-26T21:01:54.522Z,94281.00
2022-09-26T21:04:29.959Z,94251.59
2022-09-26T21:06:56.715Z,94254.34
2022-09-26T21:09:23.413Z,94254.56
2022-09-26T21:11:50.111Z,94253.06
2022-09-26T21:14:18.174Z,94248.63
2022-09-26T21:16:48.435Z,94246.84
2022-09-26T21:19:20.926Z,94255.31
2022-09-26T21:21:47.609Z,94254.69
2022-09-26T21:24:24.837Z,94229.19
2022-09-26T21:26:51.831Z,94229.47
2022-09-26T21:29:18.718Z,94238.75
2022-09-26T21:31:49.167Z,94247.22
2022-09-26T21:34:22.356Z,94233.03
2022-09-26T21:36:51.336Z,94238.00
2022-09-26T21:39:19.150Z,94238.00
2022-09-26T21:41:49.754Z,94254.19
2022-09-26T21:44:41.073Z,94227.50
2022-09-26T21:47:07.685Z,94225.53
2022-09-26T21:49:34.618Z,94216.31
2022-09-26T21:52:28.529Z,94227.53
2022-09-26T21:54:58.908Z,94230.28
2022-09-26T21:57:33.957Z,94220.81
2022-09-26T22:00:01.463Z,94222.31
2022-09-26T22:02:28.157Z,94195.91
2022-09-26T22:04:54.878Z,94206.34
2022-09-26T22:07:21.516Z,94218.56
2022-09-26T22:09:48.174Z,94190.66
2022-09-26T22:12:14.802Z,94191.41
2022-09-26T22:14:41.846Z,94179.91
2022-09-26T22:17:08.745Z,94181.41
2022-09-26T22:19:36.070Z,94193.13
2022-09-26T22:22:03.322Z,94190.38
2022-09-26T22:24:30.363Z,94191.09
2022-09-26T22:26:56.954Z,94175.66
2022-09-26T22:29:23.564Z,94180.66
2022-09-26T22:31:50.395Z,94187.88
2022-09-26T22:34:17.146Z,94188.31
2022-09-26T22:36:43.752Z,94196.06
2022-09-26T22:39:10.568Z,94199.34
2022-09-26T22:41:37.298Z,94187.63
2022-09-26T22:44:04.410Z,94170.94
2022-09-26T22:46:35.723Z,94180.41
2022-09-26T22:49:02.445Z,94171.00
2022-09-26T22:51:29.040Z,94172.19
2022-09-26T22:53:55.822Z,94158.03
2022-09-26T22:56:22.665Z,94182.41
2022-09-26T22:58:51.926Z,94185.66
2022-09-26T23:01:23.973Z,94177.91
2022-09-26T23:03:52.893Z,94170.72
2022-09-26T23:06:21.492Z,94162.59
2022-09-26T23:08:48.238Z,94150.66
2022-09-26T23:11:18.291Z,94137.88
2022-09-26T23:13:46.115Z,94153.78
2022-09-26T23:16:18.291Z,94162.03
2022-09-26T23:18:45.247Z,94144.63
2022-09-26T23:21:17.327Z,94155.84
2022-09-26T23:23:45.119Z,94150.34
2022-09-26T23:26:23.410Z,94133.13
2022-09-26T23:28:51.327Z,94128.38
2022-09-26T23:31:18.824Z,94115.41
2022-09-26T23:33:45.542Z,94102.75
2022-09-26T23:36:12.500Z,94101.50
2022-09-26T23:38:40.252Z,94101.94
2022-09-26T23:41:08.593Z,94123.34
2022-09-26T23:43:35.336Z,94103.13
2022-09-26T23:46:05.625Z,94096.22
2022-09-26T23:48:32.402Z,94106.72
2022-09-26T23:50:59.213Z,94104.00
2022-09-26T23:53:25.909Z,94114.16
2022-09-26T23:55:53.306Z,94114.44
2022-09-26T23:58:20.139Z,94104.50
